createdAt,value
2018-07-13T00:01:59.095Z,14.10
2018-07-13T00:04:27.891Z,14.10
2018-07-13T00:06:56.454Z,14.10
2018-07-13T00:09:25.091Z,14.10
2018-07-13T00:11:53.620Z,14.00
2018-07-13T00:14:26.087Z,14.00
2018-07-13T00:16:56.156Z,13.90
2018-07-13T00:19:25.272Z,13.90
2018-07-13T00:21:54.178Z,13.80
2018-07-13T00:24:22.979Z,13.80
2018-07-13T00:26:51.718Z,14.90
2018-07-13T00:31:48.658Z,13.70
2018-07-13T00:34:17.434Z,13.60
2018-07-13T00:36:45.911Z,13.60
2018-07-13T00:39:14.730Z,13.70
2018-07-13T00:41:43.253Z,13.60
2018-07-13T00:44:11.963Z,13.50
2018-07-13T00:46:40.448Z,13.40
2018-07-13T00:49:08.988Z,13.20
2018-07-13T00:51:37.712Z,13.20
2018-07-13T00:54:06.614Z,13.20
2018-07-13T00:56:35.120Z,13.10
2018-07-13T00:59:03.794Z,13.20
2018-07-13T01:01:32.231Z,13.20
2018-07-13T01:04:00.880Z,13.10
2018-07-13T01:06:29.643Z,13.00
2018-07-13T01:08:58.325Z,13.00
2018-07-13T01:11:26.816Z,13.00
2018-07-13T01:13:55.490Z,13.00
2018-07-13T01:16:23.995Z,12.90
2018-07-13T01:18:52.768Z,12.90
2018-07-13T01:21:21.252Z,12.90
2018-07-13T01:23:49.785Z,12.80
2018-07-13T01:26:18.362Z,12.80
2018-07-13T01:28:46.875Z,12.70
2018-07-13T01:31:15.613Z,12.70
2018-07-13T01:33:44.151Z,12.60
2018-07-13T01:36:12.613Z,12.60
2018-07-13T01:38:41.108Z,12.60
2018-07-13T01:41:09.765Z,12.60
2018-07-13T01:43:38.294Z,12.50
2018-07-13T01:46:06.827Z,12.50
2018-07-13T01:48:35.519Z,12.50
2018-07-13T01:51:04.025Z,12.50
2018-07-13T01:53:32.534Z,12.50
2018-07-13T01:56:01.071Z,12.40
2018-07-13T01:58:30.129Z,12.40
2018-07-13T02:00:58.606Z,12.30
2018-07-13T02:03:27.076Z,12.30
2018-07-13T02:05:55.571Z,12.30
2018-07-13T02:08:24.056Z,12.20
2018-07-13T02:10:52.970Z,12.10
2018-07-13T02:13:21.550Z,12.10
2018-07-13T02:15:50.073Z,12.10
2018-07-13T02:18:18.550Z,12.10
2018-07-13T02:20:47.241Z,12.10
2018-07-13T02:23:15.717Z,12.10
2018-07-13T02:25:44.212Z,12.00
2018-07-13T02:28:12.921Z,11.90
2018-07-13T02:33:09.796Z,11.90
2018-07-13T02:35:38.451Z,11.90
2018-07-13T02:38:07.155Z,11.80
2018-07-13T02:40:35.627Z,11.90
2018-07-13T02:43:04.340Z,11.80
2018-07-13T02:45:32.828Z,11.80
2018-07-13T02:48:01.797Z,11.90
2018-07-13T02:50:30.325Z,11.80
2018-07-13T02:52:58.798Z,11.80
2018-07-13T02:55:27.301Z,11.80
2018-07-13T02:57:55.786Z,11.80
2018-07-13T03:00:24.286Z,11.80
2018-07-13T03:02:52.796Z,11.80
2018-07-13T03:05:21.436Z,11.80
2018-07-13T03:07:50.296Z,11.80
2018-07-13T03:10:18.846Z,11.90
2018-07-13T03:12:47.315Z,11.90
2018-07-13T03:15:15.958Z,12.00
2018-07-13T03:17:44.786Z,12.10
2018-07-13T03:20:13.588Z,12.10
2018-07-13T03:22:42.107Z,12.10
2018-07-13T03:25:10.593Z,12.00
2018-07-13T03:27:39.103Z,12.10
2018-07-13T03:30:07.776Z,12.10
2018-07-13T03:32:36.292Z,12.10
2018-07-13T03:35:04.931Z,12.10
2018-07-13T03:37:33.608Z,12.20
2018-07-13T03:40:02.099Z,12.20
2018-07-13T03:42:30.811Z,12.30
2018-07-13T03:44:59.342Z,12.40
2018-07-13T03:47:27.811Z,12.40
2018-07-13T03:49:56.353Z,12.50
2018-07-13T03:52:24.871Z,12.70
2018-07-13T03:54:53.622Z,12.60
2018-07-13T03:57:22.176Z,12.50
2018-07-13T03:59:50.748Z,12.40
2018-07-13T04:02:19.584Z,12.60
2018-07-13T04:04:48.072Z,12.50
2018-07-13T04:07:16.803Z,12.50
2018-07-13T04:09:45.310Z,12.70
2018-07-13T04:12:13.956Z,12.70
2018-07-13T04:14:42.467Z,12.90
2018-07-13T04:17:11.163Z,13.00
2018-07-13T04:19:39.857Z,13.10
2018-07-13T04:22:08.747Z,13.20
2018-07-13T04:24:38.055Z,13.20
2018-07-13T04:27:06.640Z,13.30
2018-07-13T04:32:03.340Z,13.40
2018-07-13T04:34:32.007Z,13.60
2018-07-13T04:37:00.696Z,13.60
2018-07-13T04:39:29.477Z,13.70
2018-07-13T04:41:58.161Z,13.70
2018-07-13T04:44:26.864Z,13.80
2018-07-13T04:46:55.430Z,13.90
2018-07-13T04:49:23.929Z,13.80
2018-07-13T04:51:52.539Z,13.90
2018-07-13T04:54:21.081Z,13.80
2018-07-13T04:56:49.891Z,13.70
2018-07-13T04:59:18.863Z,13.80
2018-07-13T05:01:47.547Z,13.90
2018-07-13T05:04:16.117Z,14.00
2018-07-13T05:06:44.984Z,14.20
2018-07-13T05:09:13.583Z,14.30
2018-07-13T05:11:42.159Z,14.60
2018-07-13T05:14:10.680Z,14.50
2018-07-13T05:16:39.212Z,14.60
2018-07-13T05:19:07.755Z,14.60
2018-07-13T05:21:36.362Z,14.70
2018-07-13T05:24:05.027Z,14.80
2018-07-13T05:26:33.836Z,15.00
2018-07-13T05:29:02.384Z,15.00
2018-07-13T05:31:30.890Z,15.00
2018-07-13T05:33:59.618Z,15.10
2018-07-13T05:36:28.135Z,15.20
2018-07-13T05:38:56.648Z,15.30
2018-07-13T05:41:25.518Z,15.30
2018-07-13T05:43:54.072Z,15.00
2018-07-13T05:46:22.799Z,15.00
2018-07-13T05:48:51.388Z,15.00
2018-07-13T05:51:19.880Z,15.10
2018-07-13T05:53:48.562Z,15.30
2018-07-13T05:56:17.442Z,15.40
2018-07-13T05:58:45.958Z,15.60
2018-07-13T06:03:42.662Z,15.80
2018-07-13T06:06:11.237Z,16.00
2018-07-13T06:08:39.974Z,16.00
2018-07-13T06:11:08.835Z,16.00
2018-07-13T06:13:37.588Z,16.40
2018-07-13T06:16:06.087Z,16.40
2018-07-13T06:18:35.015Z,16.50
2018-07-13T06:21:03.544Z,16.50
2018-07-13T06:23:32.041Z,16.50
2018-07-13T06:26:00.569Z,16.80
2018-07-13T06:28:29.877Z,16.80
2018-07-13T06:30:58.434Z,16.80
2018-07-13T06:33:27.337Z,16.70
2018-07-13T06:35:56.112Z,16.80
2018-07-13T06:38:24.897Z,16.90
2018-07-13T06:40:53.443Z,17.20
2018-07-13T06:43:22.196Z,17.40
2018-07-13T06:45:50.851Z,17.20
2018-07-13T06:48:19.371Z,16.90
2018-07-13T06:50:48.204Z,17.00
2018-07-13T06:53:17.156Z,16.90
2018-07-13T06:55:46.324Z,16.80
2018-07-13T06:58:26.124Z,16.80
2018-07-13T07:01:01.280Z,16.60
2018-07-13T07:03:31.606Z,16.50
2018-07-13T07:06:08.828Z,16.40
2018-07-13T07:08:38.869Z,16.40
2018-07-13T07:11:07.617Z,16.40
2018-07-13T07:13:40.177Z,16.60
2018-07-13T07:16:09.092Z,16.60
2018-07-13T07:18:38.020Z,16.50
2018-07-13T07:21:10.185Z,16.60
2018-07-13T07:23:39.018Z,16.60
2018-07-13T07:26:07.720Z,16.70
2018-07-13T07:28:36.323Z,16.80
2018-07-13T07:31:05.033Z,17.00
2018-07-13T07:33:33.587Z,17.10
2018-07-13T07:36:02.211Z,17.30
2018-07-13T07:38:31.080Z,17.40
2018-07-13T07:40:59.763Z,17.50
2018-07-13T07:43:28.314Z,17.60
2018-07-13T07:45:56.971Z,17.60
2018-07-13T07:48:25.920Z,17.70
2018-07-13T07:53:23.495Z,17.90
2018-07-13T07:55:52.280Z,18.00
2018-07-13T07:58:21.047Z,18.20
2018-07-13T08:00:49.739Z,18.30
2018-07-13T08:03:18.377Z,18.50
2018-07-13T08:05:47.131Z,18.50
2018-07-13T08:08:16.077Z,18.70
2018-07-13T08:10:44.953Z,18.80
2018-07-13T08:13:13.692Z,18.90
2018-07-13T08:18:10.699Z,19.10
2018-07-13T08:20:46.260Z,19.20
2018-07-13T08:23:14.884Z,19.30
2018-07-13T08:25:46.254Z,19.40
2018-07-13T08:28:17.823Z,19.50
2018-07-13T08:30:49.530Z,19.60
2018-07-13T08:33:18.470Z,19.60
2018-07-13T08:35:47.170Z,19.70
2018-07-13T08:38:15.709Z,19.80
2018-07-13T08:40:44.276Z,19.90
2018-07-13T08:43:12.871Z,20.00
2018-07-13T08:45:41.994Z,20.00
2018-07-13T08:48:10.650Z,20.10
2018-07-13T08:50:39.548Z,20.10
2018-07-13T08:53:08.755Z,20.30
2018-07-13T08:55:37.507Z,20.40
2018-07-13T08:58:06.562Z,20.40
2018-07-13T09:00:35.656Z,20.50
2018-07-13T09:03:04.602Z,20.60
2018-07-13T09:05:33.151Z,20.50
2018-07-13T09:08:01.825Z,20.60
2018-07-13T09:10:30.525Z,20.80
2018-07-13T09:12:59.576Z,21.00
2018-07-13T09:15:28.202Z,21.10
2018-07-13T09:17:56.937Z,21.20
2018-07-13T09:20:25.685Z,21.30
2018-07-13T09:22:54.741Z,21.50
2018-07-13T09:25:23.567Z,21.50
2018-07-13T09:27:52.251Z,21.70
2018-07-13T09:30:20.847Z,21.80
2018-07-13T09:32:49.511Z,21.90
2018-07-13T09:35:18.337Z,22.10
2018-07-13T09:37:47.147Z,22.30
2018-07-13T09:40:15.922Z,22.30
2018-07-13T09:42:44.787Z,22.40
2018-07-13T09:45:13.588Z,22.40
2018-07-13T09:47:42.308Z,22.70
2018-07-13T09:50:11.260Z,22.80
2018-07-13T09:52:40.008Z,23.00
2018-07-13T09:55:08.660Z,23.10
2018-07-13T09:57:37.309Z,23.20
2018-07-13T10:00:05.988Z,23.60
2018-07-13T10:02:34.540Z,23.70
2018-07-13T10:05:03.497Z,24.10
2018-07-13T10:07:32.202Z,24.30
2018-07-13T10:10:00.731Z,24.50
2018-07-13T10:12:29.429Z,24.80
2018-07-13T10:17:26.422Z,25.10
2018-07-13T10:19:55.093Z,25.20
2018-07-13T10:22:26.425Z,25.50
2018-07-13T10:24:57.093Z,25.30
2018-07-13T10:27:29.736Z,25.50
2018-07-13T10:29:59.219Z,26.40
2018-07-13T10:32:27.966Z,27.10
2018-07-13T10:34:57.002Z,27.20
2018-07-13T10:37:27.883Z,27.60
2018-07-13T10:39:56.684Z,28.30
2018-07-13T10:42:25.632Z,28.70
2018-07-13T10:44:54.187Z,28.60
2018-07-13T10:47:22.995Z,28.40
2018-07-13T10:49:51.819Z,28.50
2018-07-13T10:52:20.529Z,28.50
2018-07-13T10:54:49.144Z,28.20
2018-07-13T10:57:17.963Z,28.60
2018-07-13T10:59:46.563Z,28.90
2018-07-13T11:02:15.395Z,28.50
2018-07-13T11:04:44.020Z,28.70
2018-07-13T11:09:40.852Z,29.50
2018-07-13T11:12:09.706Z,29.60
2018-07-13T11:14:38.338Z,30.20
2018-07-13T11:17:06.917Z,29.90
2018-07-13T11:19:35.554Z,29.10
2018-07-13T11:22:04.240Z,29.70
2018-07-13T11:24:32.898Z,30.20
2018-07-13T11:29:30.337Z,30.80
2018-07-13T11:31:58.942Z,31.00
2018-07-13T11:34:27.504Z,31.40
2018-07-13T11:36:56.459Z,31.50
2018-07-13T11:39:25.481Z,31.90
2018-07-13T11:41:54.366Z,31.70
2018-07-13T11:44:23.136Z,32.20
2018-07-13T11:46:52.002Z,32.20
2018-07-13T11:49:20.752Z,31.60
2018-07-13T11:54:17.975Z,31.90
2018-07-13T11:56:46.779Z,33.10
2018-07-13T11:59:15.501Z,33.30
2018-07-13T12:01:44.137Z,33.10
2018-07-13T12:04:13.127Z,33.50
2018-07-13T12:06:42.007Z,33.10
2018-07-13T12:09:11.113Z,33.50
2018-07-13T12:11:39.873Z,33.00
2018-07-13T12:14:08.812Z,32.60
2018-07-13T12:16:37.538Z,32.70
2018-07-13T12:19:06.488Z,33.40
2018-07-13T12:21:35.211Z,33.00
2018-07-13T12:24:04.200Z,33.00
2018-07-13T12:26:32.985Z,31.90
2018-07-13T12:29:01.921Z,33.40
2018-07-13T12:31:30.778Z,33.50
2018-07-13T12:33:59.691Z,34.00
2018-07-13T12:36:28.463Z,33.40
2018-07-13T12:38:57.454Z,33.50
2018-07-13T12:41:26.116Z,34.40
2018-07-13T12:43:54.713Z,34.30
2018-07-13T12:46:23.333Z,34.50
2018-07-13T12:48:52.055Z,34.50
2018-07-13T12:51:20.733Z,34.60
2018-07-13T12:53:49.523Z,34.40
2018-07-13T12:56:18.370Z,34.80
2018-07-13T12:58:46.970Z,35.90
2018-07-13T13:01:15.945Z,36.50
2018-07-13T13:03:44.510Z,35.20
2018-07-13T13:06:13.040Z,35.40
2018-07-13T13:08:42.066Z,35.90
2018-07-13T13:11:10.730Z,36.40
2018-07-13T13:13:39.457Z,37.40
2018-07-13T13:16:08.008Z,36.00
2018-07-13T13:18:36.797Z,36.10
2018-07-13T13:21:05.796Z,35.10
2018-07-13T13:23:34.533Z,33.30
2018-07-13T13:26:03.377Z,34.70
2018-07-13T13:28:32.068Z,35.10
2018-07-13T13:31:00.997Z,36.80
2018-07-13T13:33:29.972Z,36.10
2018-07-13T13:35:58.887Z,35.50
2018-07-13T13:38:27.683Z,35.90
2018-07-13T13:40:56.280Z,35.90
2018-07-13T13:43:24.970Z,37.00
2018-07-13T13:45:54.107Z,34.50
2018-07-13T13:48:22.800Z,33.40
2018-07-13T13:50:51.541Z,32.50
2018-07-13T13:53:20.333Z,33.80
2018-07-13T13:55:49.079Z,34.70
2018-07-13T13:58:18.083Z,35.20
2018-07-13T14:00:47.031Z,35.60
2018-07-13T14:03:15.985Z,37.10
2018-07-13T14:05:45.567Z,36.80
2018-07-13T14:08:14.438Z,34.10
2018-07-13T14:10:43.392Z,34.70
2018-07-13T14:13:12.051Z,35.20
2018-07-13T14:15:40.787Z,37.50
2018-07-13T14:18:09.760Z,37.70
2018-07-13T14:20:38.750Z,37.00
2018-07-13T14:23:07.705Z,37.50
2018-07-13T14:25:36.541Z,37.90
2018-07-13T14:28:05.197Z,35.90
2018-07-13T14:30:33.867Z,34.60
2018-07-13T14:33:02.806Z,34.90
2018-07-13T14:35:31.390Z,36.00
2018-07-13T14:37:59.946Z,37.20
2018-07-13T14:40:28.513Z,38.80
2018-07-13T14:42:57.439Z,38.20
2018-07-13T14:45:26.200Z,37.30
2018-07-13T14:47:54.852Z,36.80
2018-07-13T14:50:23.592Z,37.40
2018-07-13T14:52:52.367Z,37.40
2018-07-13T14:55:21.432Z,36.90
2018-07-13T14:57:50.946Z,39.00
2018-07-13T15:00:19.823Z,39.00
2018-07-13T15:02:48.719Z,40.20
2018-07-13T15:05:17.749Z,40.40
2018-07-13T15:07:46.512Z,39.10
2018-07-13T15:10:15.548Z,39.30
2018-07-13T15:12:44.239Z,38.70
2018-07-13T15:15:13.185Z,37.10
2018-07-13T15:17:42.244Z,37.30
2018-07-13T15:20:11.038Z,37.90
2018-07-13T15:22:39.726Z,38.40
2018-07-13T15:25:08.267Z,38.10
2018-07-13T15:27:37.010Z,37.70
2018-07-13T15:30:05.735Z,36.60
2018-07-13T15:32:35.099Z,36.30
2018-07-13T15:35:03.841Z,36.60
2018-07-13T15:37:32.472Z,36.60
2018-07-13T15:40:01.006Z,36.40
2018-07-13T15:42:29.746Z,36.80
2018-07-13T15:44:58.364Z,36.50
2018-07-13T15:47:26.946Z,36.20
2018-07-13T15:49:56.023Z,37.20
2018-07-13T15:52:24.744Z,37.20
2018-07-13T15:54:54.087Z,38.40
2018-07-13T15:57:22.818Z,37.60
2018-07-13T15:59:51.750Z,37.30
2018-07-13T16:02:20.723Z,36.70
2018-07-13T16:04:49.778Z,36.30
2018-07-13T16:07:18.944Z,35.30
2018-07-13T16:09:47.527Z,35.40
2018-07-13T16:12:16.130Z,35.10
2018-07-13T16:14:44.965Z,33.90
2018-07-13T16:17:13.553Z,33.30
2018-07-13T16:19:42.405Z,32.90
2018-07-13T16:22:11.567Z,31.70
2018-07-13T16:24:40.221Z,30.80
2018-07-13T16:27:08.977Z,30.90
2018-07-13T16:29:37.880Z,30.40
2018-07-13T16:32:06.863Z,30.20
2018-07-13T16:34:35.669Z,29.60
2018-07-13T16:37:04.804Z,29.10
2018-07-13T16:39:33.372Z,28.60
2018-07-13T16:42:01.991Z,28.70
2018-07-13T16:44:31.089Z,29.00
2018-07-13T16:46:59.900Z,29.50
2018-07-13T16:49:28.644Z,30.30
2018-07-13T16:51:57.302Z,30.50
2018-07-13T16:56:54.320Z,30.10
2018-07-13T16:59:23.542Z,29.60
2018-07-13T17:01:52.356Z,29.10
2018-07-13T17:04:21.302Z,29.00
2018-07-13T17:06:50.429Z,28.80
2018-07-13T17:09:19.307Z,28.60
2018-07-13T17:11:48.163Z,28.50
2018-07-13T17:14:16.764Z,28.30
2018-07-13T17:16:45.350Z,28.10
2018-07-13T17:19:14.218Z,27.80
2018-07-13T17:21:43.200Z,27.50
2018-07-13T17:24:11.951Z,27.30
2018-07-13T17:26:40.663Z,26.90
2018-07-13T17:29:09.919Z,26.60
2018-07-13T17:31:38.825Z,26.30
2018-07-13T17:34:08.008Z,26.20
2018-07-13T17:36:36.754Z,26.20
2018-07-13T17:39:06.071Z,25.90
2018-07-13T17:41:35.117Z,25.80
2018-07-13T17:44:04.130Z,25.70
2018-07-13T17:46:32.797Z,25.60
2018-07-13T17:49:01.829Z,25.50
2018-07-13T17:51:30.560Z,25.30
2018-07-13T17:53:59.412Z,25.30
2018-07-13T17:56:28.148Z,25.30
2018-07-13T17:58:56.988Z,25.10
2018-07-13T18:01:25.962Z,25.00
2018-07-13T18:03:55.054Z,25.00
2018-07-13T18:06:23.881Z,24.90
2018-07-13T18:08:52.681Z,24.90
2018-07-13T18:11:21.645Z,24.80
2018-07-13T18:13:50.410Z,24.70
2018-07-13T18:16:19.408Z,24.70
2018-07-13T18:18:48.210Z,24.50
2018-07-13T18:21:17.017Z,24.40
2018-07-13T18:23:45.655Z,24.30
2018-07-13T18:26:14.645Z,24.20
2018-07-13T18:28:43.309Z,24.10
2018-07-13T18:31:12.152Z,24.10
2018-07-13T18:33:41.303Z,24.10
2018-07-13T18:36:09.925Z,23.90
2018-07-13T18:38:38.600Z,23.70
2018-07-13T18:41:11.551Z,23.60
2018-07-13T18:43:40.278Z,23.50
2018-07-13T18:46:08.913Z,23.40
2018-07-13T18:51:06.686Z,22.80
2018-07-13T18:53:35.936Z,22.60
2018-07-13T18:56:05.155Z,22.40
2018-07-13T18:58:33.914Z,22.30
2018-07-13T19:01:02.791Z,22.20
2018-07-13T19:03:31.427Z,22.10
2018-07-13T19:06:00.251Z,22.00
2018-07-13T19:08:28.976Z,21.80
2018-07-13T19:10:57.991Z,21.60
2018-07-13T19:13:26.814Z,21.40
2018-07-13T19:15:55.540Z,21.30
2018-07-13T19:18:24.501Z,21.20
2018-07-13T19:20:53.163Z,21.10
2018-07-13T19:23:21.957Z,21.00
2018-07-13T19:25:50.731Z,20.80
2018-07-13T19:28:19.514Z,20.70
2018-07-13T19:30:48.689Z,20.60
2018-07-13T19:33:17.449Z,20.40
2018-07-13T19:35:46.654Z,20.30
2018-07-13T19:38:15.268Z,20.10
2018-07-13T19:40:44.276Z,19.90
2018-07-13T19:43:13.028Z,19.70
2018-07-13T19:45:42.099Z,19.60
2018-07-13T19:48:11.135Z,19.40
2018-07-13T19:50:40.019Z,19.40
2018-07-13T19:53:09.324Z,19.20
2018-07-13T19:55:38.472Z,19.10
2018-07-13T19:58:07.170Z,19.00
2018-07-13T20:00:36.370Z,18.80
2018-07-13T20:03:05.074Z,18.70
2018-07-13T20:05:33.749Z,18.70
2018-07-13T20:08:02.714Z,18.60
2018-07-13T20:10:31.303Z,18.60
2018-07-13T20:13:00.338Z,18.50
2018-07-13T20:15:29.183Z,18.50
2018-07-13T20:17:58.436Z,18.40
2018-07-13T20:20:27.442Z,18.30
2018-07-13T20:22:56.106Z,18.20
2018-07-13T20:25:24.995Z,18.10
2018-07-13T20:27:53.809Z,18.20
2018-07-13T20:30:22.728Z,18.20
2018-07-13T20:35:20.284Z,18.00
2018-07-13T20:37:49.097Z,17.90
2018-07-13T20:40:18.019Z,17.80
2018-07-13T20:42:46.801Z,17.80
2018-07-13T20:45:15.527Z,17.70
2018-07-13T20:47:44.596Z,17.70
2018-07-13T20:50:13.471Z,17.60
2018-07-13T20:52:42.165Z,17.60
2018-07-13T20:55:10.993Z,17.50
2018-07-13T20:57:39.991Z,17.50
2018-07-13T21:00:09.440Z,17.50
2018-07-13T21:02:38.529Z,17.40
2018-07-13T21:05:07.289Z,17.30
2018-07-13T21:07:35.927Z,17.20
2018-07-13T21:10:04.903Z,17.10
2018-07-13T21:12:33.668Z,17.10
2018-07-13T21:15:02.321Z,17.00
2018-07-13T21:17:31.211Z,16.80
2018-07-13T21:20:00.110Z,16.80
2018-07-13T21:22:28.907Z,16.80
2018-07-13T21:24:57.564Z,16.80
2018-07-13T21:27:26.259Z,16.80
2018-07-13T21:29:54.990Z,16.70
2018-07-13T21:32:23.865Z,16.70
2018-07-13T21:34:52.397Z,16.70
2018-07-13T21:37:21.594Z,16.50
2018-07-13T21:39:50.369Z,16.50
2018-07-13T21:42:19.553Z,16.50
2018-07-13T21:44:48.257Z,16.50
2018-07-13T21:47:16.922Z,16.30
2018-07-13T21:49:45.725Z,16.30
2018-07-13T21:52:14.760Z,16.30
2018-07-13T21:54:43.254Z,16.30
2018-07-13T21:57:12.185Z,16.30
2018-07-13T21:59:41.142Z,16.30
2018-07-13T22:02:09.693Z,16.10
2018-07-13T22:04:38.638Z,15.90
2018-07-13T22:07:07.418Z,15.90
2018-07-13T22:09:35.982Z,15.90
2018-07-13T22:12:04.658Z,15.80
2018-07-13T22:14:33.233Z,15.80
2018-07-13T22:17:02.433Z,15.70
2018-07-13T22:19:31.535Z,15.70
2018-07-13T22:22:00.150Z,15.70
2018-07-13T22:24:29.065Z,15.60
2018-07-13T22:26:57.733Z,15.60
2018-07-13T22:29:26.566Z,15.50
2018-07-13T22:31:55.336Z,15.50
2018-07-13T22:34:24.784Z,15.50
2018-07-13T22:39:21.916Z,15.40
2018-07-13T22:41:50.573Z,15.40
2018-07-13T22:44:19.150Z,15.40
2018-07-13T22:46:48.052Z,19.10
2018-07-13T22:49:16.632Z,15.60
2018-07-13T22:51:45.714Z,15.60
2018-07-13T22:54:14.433Z,15.60
2018-07-13T22:56:43.166Z,15.60
2018-07-13T22:59:11.747Z,15.60
2018-07-13T23:01:40.421Z,15.40
2018-07-13T23:04:09.109Z,15.40
2018-07-13T23:06:37.647Z,15.40
2018-07-13T23:09:06.845Z,15.30
2018-07-13T23:11:35.372Z,15.20
2018-07-13T23:14:04.176Z,15.00
2018-07-13T23:16:32.872Z,14.80
2018-07-13T23:19:01.508Z,14.90
2018-07-13T23:21:30.244Z,14.80
2018-07-13T23:23:58.996Z,14.80
2018-07-13T23:26:27.511Z,14.90
2018-07-13T23:28:56.185Z,14.90
2018-07-13T23:31:25.016Z,14.80
2018-07-13T23:33:53.734Z,14.80
2018-07-13T23:36:22.191Z,14.80
2018-07-13T23:38:50.808Z,14.80
2018-07-13T23:41:19.608Z,14.80
2018-07-13T23:43:48.113Z,14.80
2018-07-13T23:46:16.675Z,14.80
2018-07-13T23:48:45.372Z,14.80
2018-07-13T23:51:13.875Z,14.80
2018-07-13T23:53:42.654Z,14.80
2018-07-13T23:56:11.374Z,14.80
2018-07-13T23:58:40.356Z,14.90
